sensor_id;sensor_type;location;lat;lon;timestamp;pressure;altitude;pressure_sealevel;temperature;humidity
20115;BME280;10218;42.874;25.320;2024-03-06T00:01:58;96989.75;;;9.27;100.00
20115;BME280;10218;42.874;25.320;2024-03-06T00:04:26;96995.09;;;9.19;100.00
20115;BME280;10218;42.874;25.320;2024-03-06T00:06:53;96998.22;;;9.47;100.00
20115;BME280;10218;42.874;25.320;2024-03-06T00:09:22;96997.22;;;9.48;100.00
20115;BME280;10218;42.874;25.320;2024-03-06T00:11:49;97002.41;;;9.17;100.00
20115;BME280;10218;42.874;25.320;2024-03-06T00:14:20;96987.94;;;9.19;100.00
20115;BME280;10218;42.874;25.320;2024-03-06T00:16:49;96998.03;;;8.51;100.00
20115;BME280;10218;42.874;25.320;2024-03-06T00:19:17;96987.56;;;8.57;100.00
20115;BME280;10218;42.874;25.320;2024-03-06T00:21:45;96997.09;;;8.92;100.00
20115;BME280;10218;42.874;25.320;2024-03-06T00:24:15;96991.72;;;8.18;100.00
20115;BME280;10218;42.874;25.320;2024-03-06T00:26:45;96999.25;;;9.13;100.00
20115;BME280;10218;42.874;25.320;2024-03-06T00:29:14;97001.41;;;9.34;100.00
20115;BME280;10218;42.874;25.320;2024-03-06T00:31:45;96997.03;;;9.57;100.00
20115;BME280;10218;42.874;25.320;2024-03-06T00:34:13;96990.53;;;9.52;100.00
20115;BME280;10218;42.874;25.320;2024-03-06T00:36:43;96996.34;;;9.55;100.00
20115;BME280;10218;42.874;25.320;2024-03-06T00:39:10;96994.72;;;9.54;100.00
20115;BME280;10218;42.874;25.320;2024-03-06T00:41:38;97001.56;;;9.40;100.00
20115;BME280;10218;42.874;25.320;2024-03-06T00:44:05;96992.56;;;8.85;100.00
20115;BME280;10218;42.874;25.320;2024-03-06T00:46:32;96999.44;;;9.04;100.00
20115;BME280;10218;42.874;25.320;2024-03-06T00:49:02;96999.59;;;9.34;100.00
20115;BME280;10218;42.874;25.320;2024-03-06T00:51:29;96999.72;;;9.25;100.00
20115;BME280;10218;42.874;25.320;2024-03-06T00:53:58;97002.38;;;9.41;100.00
20115;BME280;10218;42.874;25.320;2024-03-06T00:56:25;96988.44;;;9.07;100.00
20115;BME280;10218;42.874;25.320;2024-03-06T00:58:53;97006.94;;;9.24;100.00
20115;BME280;10218;42.874;25.320;2024-03-06T01:01:20;96999.72;;;9.49;100.00
20115;BME280;10218;42.874;25.320;2024-03-06T01:03:47;96999.72;;;9.49;100.00
20115;BME280;10218;42.874;25.320;2024-03-06T01:06:14;96996.19;;;9.65;100.00
20115;BME280;10218;42.874;25.320;2024-03-06T01:08:41;97010.72;;;9.54;100.00
20115;BME280;10218;42.874;25.320;2024-03-06T01:11:09;97005.41;;;9.30;100.00
20115;BME280;10218;42.874;25.320;2024-03-06T01:13:38;96996.06;;;9.42;100.00
20115;BME280;10218;42.874;25.320;2024-03-06T01:16:05;97014.72;;;9.10;100.00
20115;BME280;10218;42.874;25.320;2024-03-06T01:18:32;97013.06;;;9.41;100.00
20115;BME280;10218;42.874;25.320;2024-03-06T01:21:00;97011.75;;;9.29;100.00
20115;BME280;10218;42.874;25.320;2024-03-06T01:23:27;97021.56;;;9.36;100.00
20115;BME280;10218;42.874;25.320;2024-03-06T01:25:54;97016.22;;;9.04;100.00
20115;BME280;10218;42.874;25.320;2024-03-06T01:28:21;97023.41;;;9.28;100.00
20115;BME280;10218;42.874;25.320;2024-03-06T01:30:48;97027.72;;;8.96;100.00
20115;BME280;10218;42.874;25.320;2024-03-06T01:33:15;97033.22;;;9.43;100.00
20115;BME280;10218;42.874;25.320;2024-03-06T01:35:43;97029.72;;;9.43;100.00
20115;BME280;10218;42.874;25.320;2024-03-06T01:38:10;97018.53;;;9.64;100.00
20115;BME280;10218;42.874;25.320;2024-03-06T01:40:37;97031.03;;;9.63;100.00
20115;BME280;10218;42.874;25.320;2024-03-06T01:43:04;97030.72;;;9.58;100.00
20115;BME280;10218;42.874;25.320;2024-03-06T01:45:31;97021.72;;;9.27;100.00
20115;BME280;10218;42.874;25.320;2024-03-06T01:47:59;97033.84;;;8.89;100.00
20115;BME280;10218;42.874;25.320;2024-03-06T01:50:27;97030.41;;;9.29;100.00
20115;BME280;10218;42.874;25.320;2024-03-06T01:52:54;97027.72;;;9.37;100.00
20115;BME280;10218;42.874;25.320;2024-03-06T01:55:21;97028.56;;;9.37;100.00
20115;BME280;10218;42.874;25.320;2024-03-06T01:57:48;97038.19;;;9.63;100.00
20115;BME280;10218;42.874;25.320;2024-03-06T02:00:15;97033.88;;;9.54;100.00
20115;BME280;10218;42.874;25.320;2024-03-06T02:02:46;97025.03;;;9.69;100.00
20115;BME280;10218;42.874;25.320;2024-03-06T02:05:13;97027.19;;;9.66;100.00
20115;BME280;10218;42.874;25.320;2024-03-06T02:07:43;97036.06;;;8.93;100.00
20115;BME280;10218;42.874;25.320;2024-03-06T02:10:11;97040.00;;;8.65;100.00
20115;BME280;10218;42.874;25.320;2024-03-06T02:12:39;97029.37;;;8.73;100.00
20115;BME280;10218;42.874;25.320;2024-03-06T02:15:06;97032.06;;;8.97;100.00
20115;BME280;10218;42.874;25.320;2024-03-06T02:17:35;97034.84;;;8.80;100.00
20115;BME280;10218;42.874;25.320;2024-03-06T02:20:02;97034.75;;;9.14;100.00
20115;BME280;10218;42.874;25.320;2024-03-06T02:22:32;97039.06;;;8.98;100.00
20115;BME280;10218;42.874;25.320;2024-03-06T02:25:00;97038.38;;;9.21;100.00
20115;BME280;10218;42.874;25.320;2024-03-06T02:27:27;97042.72;;;9.38;100.00
20115;BME280;10218;42.874;25.320;2024-03-06T02:29:54;97034.69;;;8.89;100.00
20115;BME280;10218;42.874;25.320;2024-03-06T02:32:21;97048.72;;;9.16;100.00
20115;BME280;10218;42.874;25.320;2024-03-06T02:34:48;97053.53;;;9.20;100.00
20115;BME280;10218;42.874;25.320;2024-03-06T02:37:15;97047.72;;;9.33;100.00
20115;BME280;10218;42.874;25.320;2024-03-06T02:39:43;97048.53;;;9.25;100.00
20115;BME280;10218;42.874;25.320;2024-03-06T02:42:10;97052.25;;;9.24;100.00
20115;BME280;10218;42.874;25.320;2024-03-06T02:44:38;97043.37;;;8.99;100.00
20115;BME280;10218;42.874;25.320;2024-03-06T02:47:05;97051.37;;;9.08;100.00
20115;BME280;10218;42.874;25.320;2024-03-06T02:49:32;97053.56;;;9.28;100.00
20115;BME280;10218;42.874;25.320;2024-03-06T02:51:59;97051.69;;;8.96;100.00
20115;BME280;10218;42.874;25.320;2024-03-06T02:54:28;97062.03;;;9.40;100.00
20115;BME280;10218;42.874;25.320;2024-03-06T02:56:55;97056.72;;;9.16;100.00
20115;BME280;10218;42.874;25.320;2024-03-06T02:59:22;97059.22;;;9.33;100.00
20115;BME280;10218;42.874;25.320;2024-03-06T03:01:51;97051.37;;;9.16;100.00
20115;BME280;10218;42.874;25.320;2024-03-06T03:04:18;97065.69;;;9.15;100.00
20115;BME280;10218;42.874;25.320;2024-03-06T03:06:45;97059.06;;;9.27;100.00
20115;BME280;10218;42.874;25.320;2024-03-06T03:09:12;97054.06;;;9.24;100.00
20115;BME280;10218;42.874;25.320;2024-03-06T03:11:39;97061.38;;;8.97;100.00
20115;BME280;10218;42.874;25.320;2024-03-06T03:14:08;97058.19;;;8.86;100.00
20115;BME280;10218;42.874;25.320;2024-03-06T03:16:35;97058.72;;;9.14;100.00
20115;BME280;10218;42.874;25.320;2024-03-06T03:19:02;97043.72;;;9.37;100.00
20115;BME280;10218;42.874;25.320;2024-03-06T03:21:29;97050.41;;;9.09;100.00
20115;BME280;10218;42.874;25.320;2024-03-06T03:23:57;97040.34;;;8.70;100.00
20115;BME280;10218;42.874;25.320;2024-03-06T03:26:25;97059.37;;;9.08;100.00
20115;BME280;10218;42.874;25.320;2024-03-06T03:28:51;97057.88;;;9.05;100.00
20115;BME280;10218;42.874;25.320;2024-03-06T03:31:19;97055.72;;;9.09;100.00
20115;BME280;10218;42.874;25.320;2024-03-06T03:33:48;97060.03;;;9.10;100.00
20115;BME280;10218;42.874;25.320;2024-03-06T03:36:16;97061.38;;;8.97;100.00
20115;BME280;10218;42.874;25.320;2024-03-06T03:38:43;97062.97;;;8.74;100.00
20115;BME280;10218;42.874;25.320;2024-03-06T03:41:11;97065.03;;;8.88;100.00
20115;BME280;10218;42.874;25.320;2024-03-06T03:43:43;97064.84;;;8.82;100.00
20115;BME280;10218;42.874;25.320;2024-03-06T03:46:10;97070.47;;;8.79;100.00
20115;BME280;10218;42.874;25.320;2024-03-06T03:48:37;97072.34;;;8.86;100.00
20115;BME280;10218;42.874;25.320;2024-03-06T03:51:04;97075.34;;;8.91;100.00
20115;BME280;10218;42.874;25.320;2024-03-06T03:53:33;97069.00;;;8.84;100.00
20115;BME280;10218;42.874;25.320;2024-03-06T03:56:00;97082.69;;;8.97;100.00
20115;BME280;10218;42.874;25.320;2024-03-06T03:58:28;97072.22;;;9.28;100.00
20115;BME280;10218;42.874;25.320;2024-03-06T04:00:55;97086.06;;;9.24;100.00
20115;BME280;10218;42.874;25.320;2024-03-06T04:03:23;97078.00;;;8.99;100.00
20115;BME280;10218;42.874;25.320;2024-03-06T04:05:50;97091.38;;;9.24;100.00
20115;BME280;10218;42.874;25.320;2024-03-06T04:08:17;97087.38;;;9.28;100.00
20115;BME280;10218;42.874;25.320;2024-03-06T04:10:45;97084.38;;;9.55;100.00
20115;BME280;10218;42.874;25.320;2024-03-06T04:13:12;97092.22;;;9.49;100.00
20115;BME280;10218;42.874;25.320;2024-03-06T04:15:40;97086.38;;;9.21;100.00
20115;BME280;10218;42.874;25.320;2024-03-06T04:18:07;97100.00;;;9.10;100.00
20115;BME280;10218;42.874;25.320;2024-03-06T04:20:34;97098.31;;;8.92;100.00
20115;BME280;10218;42.874;25.320;2024-03-06T04:23:01;97101.97;;;8.83;100.00
20115;BME280;10218;42.874;25.320;2024-03-06T04:25:29;97096.72;;;9.32;100.00
20115;BME280;10218;42.874;25.320;2024-03-06T04:27:56;97107.34;;;9.08;100.00
20115;BME280;10218;42.874;25.320;2024-03-06T04:30:23;97105.69;;;9.07;100.00
20115;BME280;10218;42.874;25.320;2024-03-06T04:32:50;97104.87;;;9.14;100.00
20115;BME280;10218;42.874;25.320;2024-03-06T04:35:17;97114.63;;;8.89;100.00
20115;BME280;10218;42.874;25.320;2024-03-06T04:37:44;97108.69;;;9.04;100.00
20115;BME280;10218;42.874;25.320;2024-03-06T04:40:12;97117.41;;;8.30;100.00
20115;BME280;10218;42.874;25.320;2024-03-06T04:42:42;97113.19;;;8.53;100.00
20115;BME280;10218;42.874;25.320;2024-03-06T04:45:14;97113.44;;;8.76;100.00
20115;BME280;10218;42.874;25.320;2024-03-06T04:47:42;97109.69;;;9.11;100.00
20115;BME280;10218;42.874;25.320;2024-03-06T04:50:10;97106.47;;;8.83;100.00
20115;BME280;10218;42.874;25.320;2024-03-06T04:52:38;97105.97;;;8.95;100.00
20115;BME280;10218;42.874;25.320;2024-03-06T04:55:07;97112.31;;;8.94;100.00
20115;BME280;10218;42.874;25.320;2024-03-06T04:57:34;97109.69;;;9.02;100.00
20115;BME280;10218;42.874;25.320;2024-03-06T05:00:01;97107.34;;;9.16;100.00
20115;BME280;10218;42.874;25.320;2024-03-06T05:02:33;97105.59;;;8.74;100.00
20115;BME280;10218;42.874;25.320;2024-03-06T05:05:18;97129.53;;;8.66;100.00
20115;BME280;10218;42.874;25.320;2024-03-06T05:08:03;97108.34;;;9.15;100.00
20115;BME280;10218;42.874;25.320;2024-03-06T05:10:48;97103.50;;;9.10;100.00
20115;BME280;10218;42.874;25.320;2024-03-06T05:13:33;97114.34;;;9.17;100.00
20115;BME280;10218;42.874;25.320;2024-03-06T05:16:17;97112.69;;;9.40;100.00
20115;BME280;10218;42.874;25.320;2024-03-06T05:19:02;97122.03;;;9.52;100.00
20115;BME280;10218;42.874;25.320;2024-03-06T05:21:46;97122.22;;;9.42;100.00
20115;BME280;10218;42.874;25.320;2024-03-06T05:24:31;97115.00;;;9.02;100.00
20115;BME280;10218;42.874;25.320;2024-03-06T05:27:15;97131.72;;;9.37;100.00
20115;BME280;10218;42.874;25.320;2024-03-06T05:30:04;97126.66;;;9.01;100.00
20115;BME280;10218;42.874;25.320;2024-03-06T05:32:49;97137.84;;;9.13;100.00
20115;BME280;10218;42.874;25.320;2024-03-06T05:35:34;97140.38;;;9.39;100.00
20115;BME280;10218;42.874;25.320;2024-03-06T05:38:19;97146.84;;;9.12;100.00
20115;BME280;10218;42.874;25.320;2024-03-06T05:41:03;97130.44;;;8.91;100.00
20115;BME280;10218;42.874;25.320;2024-03-06T05:43:48;97148.50;;;9.13;100.00
20115;BME280;10218;42.874;25.320;2024-03-06T05:46:33;97156.19;;;9.32;100.00
20115;BME280;10218;42.874;25.320;2024-03-06T05:49:18;97154.69;;;9.30;100.00
20115;BME280;10218;42.874;25.320;2024-03-06T05:52:02;97168.00;;;9.22;100.00
20115;BME280;10218;42.874;25.320;2024-03-06T05:54:46;97163.69;;;9.29;100.00
20115;BME280;10218;42.874;25.320;2024-03-06T05:57:31;97175.66;;;9.17;100.00
20115;BME280;10218;42.874;25.320;2024-03-06T06:00:16;97173.19;;;9.31;100.00
20115;BME280;10218;42.874;25.320;2024-03-06T06:02:45;97177.97;;;9.12;100.00
20115;BME280;10218;42.874;25.320;2024-03-06T06:05:13;97182.25;;;8.88;100.00
20115;BME280;10218;42.874;25.320;2024-03-06T06:07:45;97174.28;;;9.05;100.00
20115;BME280;10218;42.874;25.320;2024-03-06T06:10:12;97173.84;;;9.25;100.00
20115;BME280;10218;42.874;25.320;2024-03-06T06:12:40;97183.94;;;8.97;100.00
20115;BME280;10218;42.874;25.320;2024-03-06T06:15:08;97187.09;;;8.93;100.00
20115;BME280;10218;42.874;25.320;2024-03-06T06:17:35;97166.72;;;9.34;100.00
20115;BME280;10218;42.874;25.320;2024-03-06T06:20:07;97167.16;;;9.21;100.00
20115;BME280;10218;42.874;25.320;2024-03-06T06:22:37;97174.97;;;9.07;100.00
20115;BME280;10218;42.874;25.320;2024-03-06T06:25:05;97178.38;;;8.83;100.00
20115;BME280;10218;42.874;25.320;2024-03-06T06:27:34;97173.97;;;9.16;100.00
20115;BME280;10218;42.874;25.320;2024-03-06T06:30:01;97187.16;;;9.09;100.00
20115;BME280;10218;42.874;25.320;2024-03-06T06:32:28;97186.06;;;8.94;100.00
20115;BME280;10218;42.874;25.320;2024-03-06T06:34:56;97178.38;;;9.41;100.00
20115;BME280;10218;42.874;25.320;2024-03-06T06:37:23;97186.41;;;9.49;100.00
20115;BME280;10218;42.874;25.320;2024-03-06T06:39:50;97186.03;;;9.60;100.00
20115;BME280;10218;42.874;25.320;2024-03-06T06:42:17;97182.69;;;9.34;100.00
20115;BME280;10218;42.874;25.320;2024-03-06T06:44:44;97183.00;;;9.31;100.00
20115;BME280;10218;42.874;25.320;2024-03-06T06:47:11;97183.53;;;9.42;100.00
20115;BME280;10218;42.874;25.320;2024-03-06T06:49:38;97174.53;;;9.52;100.00
20115;BME280;10218;42.874;25.320;2024-03-06T06:52:06;97177.91;;;9.54;100.00
20115;BME280;10218;42.874;25.320;2024-03-06T06:54:33;97187.22;;;9.66;100.00
20115;BME280;10218;42.874;25.320;2024-03-06T06:57:00;97182.06;;;9.72;100.00
20115;BME280;10218;42.874;25.320;2024-03-06T06:59:27;97181.56;;;9.44;100.00
20115;BME280;10218;42.874;25.320;2024-03-06T07:01:55;97188.25;;;9.65;100.00
20115;BME280;10218;42.874;25.320;2024-03-06T07:04:22;97183.91;;;9.80;100.00
20115;BME280;10218;42.874;25.320;2024-03-06T07:06:51;97188.41;;;9.71;100.00
20115;BME280;10218;42.874;25.320;2024-03-06T07:09:19;97187.00;;;9.35;100.00
20115;BME280;10218;42.874;25.320;2024-03-06T07:11:46;97175.88;;;9.56;100.00
20115;BME280;10218;42.874;25.320;2024-03-06T07:14:14;97188.72;;;9.76;100.00
20115;BME280;10218;42.874;25.320;2024-03-06T07:16:44;97194.25;;;9.83;100.00
20115;BME280;10218;42.874;25.320;2024-03-06T07:19:11;97197.75;;;10.00;100.00
20115;BME280;10218;42.874;25.320;2024-03-06T07:21:39;97194.41;;;9.90;100.00
20115;BME280;10218;42.874;25.320;2024-03-06T07:24:06;97200.06;;;10.11;100.00
20115;BME280;10218;42.874;25.320;2024-03-06T07:26:33;97206.25;;;10.03;100.00
20115;BME280;10218;42.874;25.320;2024-03-06T07:29:01;97196.09;;;10.23;100.00
20115;BME280;10218;42.874;25.320;2024-03-06T07:31:28;97197.06;;;9.81;100.00
20115;BME280;10218;42.874;25.320;2024-03-06T07:33:55;97198.59;;;10.24;100.00
20115;BME280;10218;42.874;25.320;2024-03-06T07:36:23;97193.91;;;10.26;100.00
20115;BME280;10218;42.874;25.320;2024-03-06T07:38:50;97199.88;;;10.37;100.00
20115;BME280;10218;42.874;25.320;2024-03-06T07:41:17;97187.75;;;9.94;100.00
20115;BME280;10218;42.874;25.320;2024-03-06T07:43:44;97201.75;;;10.36;100.00
20115;BME280;10218;42.874;25.320;2024-03-06T07:46:11;97206.91;;;9.97;100.00
20115;BME280;10218;42.874;25.320;2024-03-06T07:48:42;97203.72;;;10.42;100.00
20115;BME280;10218;42.874;25.320;2024-03-06T07:51:11;97189.75;;;10.16;100.00
20115;BME280;10218;42.874;25.320;2024-03-06T07:53:38;97201.09;;;10.10;100.00
20115;BME280;10218;42.874;25.320;2024-03-06T07:56:05;97200.38;;;10.48;100.00
20115;BME280;10218;42.874;25.320;2024-03-06T07:58:32;97195.75;;;10.10;100.00
20115;BME280;10218;42.874;25.320;2024-03-06T08:01:06;97198.34;;;9.45;100.00
20115;BME280;10218;42.874;25.320;2024-03-06T08:03:34;97202.06;;;9.68;100.00
20115;BME280;10218;42.874;25.320;2024-03-06T08:06:01;97200.09;;;10.19;100.00
20115;BME280;10218;42.874;25.320;2024-03-06T08:08:30;97197.63;;;10.72;100.00
20115;BME280;10218;42.874;25.320;2024-03-06T08:10:58;97199.06;;;10.44;100.00
20115;BME280;10218;42.874;25.320;2024-03-06T08:13:25;97201.41;;;11.25;100.00
20115;BME280;10218;42.874;25.320;2024-03-06T08:15:51;97207.69;;;11.63;100.00
20115;BME280;10218;42.874;25.320;2024-03-06T08:18:20;97199.59;;;11.48;100.00
20115;BME280;10218;42.874;25.320;2024-03-06T08:20:46;97213.28;;;10.92;100.00
20115;BME280;10218;42.874;25.320;2024-03-06T08:23:13;97212.09;;;10.94;100.00
20115;BME280;10218;42.874;25.320;2024-03-06T08:25:41;97216.44;;;10.87;100.00
20115;BME280;10218;42.874;25.320;2024-03-06T08:28:08;97216.84;;;11.15;100.00
20115;BME280;10218;42.874;25.320;2024-03-06T08:30:36;97213.19;;;11.47;100.00
20115;BME280;10218;42.874;25.320;2024-03-06T08:33:04;97220.34;;;12.00;100.00
20115;BME280;10218;42.874;25.320;2024-03-06T08:35:31;97212.25;;;11.01;100.00
20115;BME280;10218;42.874;25.320;2024-03-06T08:37:59;97211.41;;;10.37;100.00
20115;BME280;10218;42.874;25.320;2024-03-06T08:40:27;97209.41;;;10.94;100.00
20115;BME280;10218;42.874;25.320;2024-03-06T08:42:54;97213.94;;;10.31;100.00
20115;BME280;10218;42.874;25.320;2024-03-06T08:45:22;97214.94;;;11.32;100.00
20115;BME280;10218;42.874;25.320;2024-03-06T08:47:52;97208.59;;;11.55;100.00
20115;BME280;10218;42.874;25.320;2024-03-06T08:50:21;97220.22;;;11.09;100.00
20115;BME280;10218;42.874;25.320;2024-03-06T08:52:48;97227.69;;;10.75;100.00
20115;BME280;10218;42.874;25.320;2024-03-06T08:55:15;97227.84;;;10.81;100.00
20115;BME280;10218;42.874;25.320;2024-03-06T08:57:45;97227.78;;;10.97;100.00
20115;BME280;10218;42.874;25.320;2024-03-06T09:00:12;97229.84;;;11.18;100.00
20115;BME280;10218;42.874;25.320;2024-03-06T09:02:41;97222.25;;;11.07;100.00
20115;BME280;10218;42.874;25.320;2024-03-06T09:05:09;97232.25;;;10.58;100.00
20115;BME280;10218;42.874;25.320;2024-03-06T09:07:37;97238.34;;;10.91;100.00
20115;BME280;10218;42.874;25.320;2024-03-06T09:10:08;97235.34;;;10.86;100.00
20115;BME280;10218;42.874;25.320;2024-03-06T09:12:36;97234.06;;;10.65;100.00
20115;BME280;10218;42.874;25.320;2024-03-06T09:15:04;97240.13;;;10.51;100.00
20115;BME280;10218;42.874;25.320;2024-03-06T09:17:34;97226.47;;;10.30;100.00
20115;BME280;10218;42.874;25.320;2024-03-06T09:20:01;97245.78;;;10.32;100.00
20115;BME280;10218;42.874;25.320;2024-03-06T09:22:38;97240.75;;;10.53;100.00
20115;BME280;10218;42.874;25.320;2024-03-06T09:25:06;97241.81;;;10.28;100.00
20115;BME280;10218;42.874;25.320;2024-03-06T09:27:33;97240.28;;;10.50;100.00
20115;BME280;10218;42.874;25.320;2024-03-06T09:30:00;97238.97;;;10.46;100.00
20115;BME280;10218;42.874;25.320;2024-03-06T09:32:27;97244.09;;;10.63;100.00
20115;BME280;10218;42.874;25.320;2024-03-06T09:34:55;97242.09;;;10.65;100.00
20115;BME280;10218;42.874;25.320;2024-03-06T09:37:22;97227.13;;;10.87;100.00
20115;BME280;10218;42.874;25.320;2024-03-06T09:39:49;97237.41;;;10.59;100.00
20115;BME280;10218;42.874;25.320;2024-03-06T09:42:16;97230.25;;;10.52;100.00
20115;BME280;10218;42.874;25.320;2024-03-06T09:44:44;97239.41;;;10.65;100.00
20115;BME280;10218;42.874;25.320;2024-03-06T09:47:14;97233.94;;;10.98;100.00
20115;BME280;10218;42.874;25.320;2024-03-06T09:49:49;97222.69;;;11.49;100.00
20115;BME280;10218;42.874;25.320;2024-03-06T09:52:17;97225.47;;;12.10;100.00
20115;BME280;10218;42.874;25.320;2024-03-06T09:54:44;97227.31;;;12.47;100.00
20115;BME280;10218;42.874;25.320;2024-03-06T09:57:11;97221.94;;;12.09;100.00
20115;BME280;10218;42.874;25.320;2024-03-06T09:59:40;97233.09;;;12.35;100.00
20115;BME280;10218;42.874;25.320;2024-03-06T10:05:05;97233.00;;;13.10;100.00
20115;BME280;10218;42.874;25.320;2024-03-06T10:07:35;97226.28;;;12.10;100.00
20115;BME280;10218;42.874;25.320;2024-03-06T10:10:02;97234.75;;;11.76;100.00
20115;BME280;10218;42.874;25.320;2024-03-06T10:12:29;97233.25;;;11.43;100.00
20115;BME280;10218;42.874;25.320;2024-03-06T10:14:57;97232.97;;;11.91;100.00
20115;BME280;10218;42.874;25.320;2024-03-06T10:17:24;97236.03;;;11.57;100.00
20115;BME280;10218;42.874;25.320;2024-03-06T10:19:54;97231.91;;;11.78;100.00
20115;BME280;10218;42.874;25.320;2024-03-06T10:22:21;97229.50;;;12.28;100.00
20115;BME280;10218;42.874;25.320;2024-03-06T10:24:55;97236.16;;;12.32;100.00
20115;BME280;10218;42.874;25.320;2024-03-06T10:27:23;97226.00;;;12.42;100.00
20115;BME280;10218;42.874;25.320;2024-03-06T10:30:04;97228.88;;;12.56;100.00
20115;BME280;10218;42.874;25.320;2024-03-06T10:32:31;97224.13;;;12.28;100.00
20115;BME280;10218;42.874;25.320;2024-03-06T10:34:58;97223.41;;;11.66;100.00
20115;BME280;10218;42.874;25.320;2024-03-06T10:37:25;97222.09;;;12.30;100.00
20115;BME280;10218;42.874;25.320;2024-03-06T10:39:54;97219.63;;;12.29;100.00
20115;BME280;10218;42.874;25.320;2024-03-06T10:42:28;97222.78;;;12.10;100.00
20115;BME280;10218;42.874;25.320;2024-03-06T10:44:58;97222.06;;;12.97;100.00
20115;BME280;10218;42.874;25.320;2024-03-06T10:47:26;97212.97;;;12.39;100.00
20115;BME280;10218;42.874;25.320;2024-03-06T10:49:55;97214.47;;;12.57;100.00
20115;BME280;10218;42.874;25.320;2024-03-06T10:52:27;97206.66;;;13.14;100.00
20115;BME280;10218;42.874;25.320;2024-03-06T10:54:55;97211.53;;;12.96;100.00
20115;BME280;10218;42.874;25.320;2024-03-06T10:57:26;97197.19;;;13.33;100.00
20115;BME280;10218;42.874;25.320;2024-03-06T10:59:54;97205.41;;;13.46;100.00
20115;BME280;10218;42.874;25.320;2024-03-06T11:02:23;97193.31;;;13.56;100.00
20115;BME280;10218;42.874;25.320;2024-03-06T11:04:51;97210.25;;;13.21;100.00
20115;BME280;10218;42.874;25.320;2024-03-06T11:07:18;97184.44;;;14.20;100.00
20115;BME280;10218;42.874;25.320;2024-03-06T11:09:45;97207.00;;;14.74;100.00
20115;BME280;10218;42.874;25.320;2024-03-06T11:12:36;97183.25;;;14.29;100.00
20115;BME280;10218;42.874;25.320;2024-03-06T11:15:14;97186.72;;;14.72;100.00
20115;BME280;10218;42.874;25.320;2024-03-06T11:17:41;97190.31;;;14.30;100.00
20115;BME280;10218;42.874;25.320;2024-03-06T11:20:13;97191.13;;;14.86;100.00
20115;BME280;10218;42.874;25.320;2024-03-06T11:28:24;97178.25;;;15.63;100.00
20115;BME280;10218;42.874;25.320;2024-03-06T11:31:00;97172.22;;;15.14;100.00
20115;BME280;10218;42.874;25.320;2024-03-06T11:33:34;97163.34;;;15.20;100.00
20115;BME280;10218;42.874;25.320;2024-03-06T11:36:27;97170.25;;;14.04;100.00
20115;BME280;10218;42.874;25.320;2024-03-06T11:38:59;97166.63;;;15.09;100.00
20115;BME280;10218;42.874;25.320;2024-03-06T11:41:28;97163.69;;;15.04;100.00
20115;BME280;10218;42.874;25.320;2024-03-06T11:43:59;97165.44;;;15.78;100.00
20115;BME280;10218;42.874;25.320;2024-03-06T11:46:44;97155.56;;;14.90;100.00
20115;BME280;10218;42.874;25.320;2024-03-06T11:49:24;97151.97;;;15.18;100.00
20115;BME280;10218;42.874;25.320;2024-03-06T11:51:53;97157.94;;;15.54;100.00
20115;BME280;10218;42.874;25.320;2024-03-06T11:54:22;97153.00;;;15.77;100.00
20115;BME280;10218;42.874;25.320;2024-03-06T11:56:58;97157.78;;;14.80;100.00
20115;BME280;10218;42.874;25.320;2024-03-06T11:59:30;97147.69;;;14.82;100.00
20115;BME280;10218;42.874;25.320;2024-03-06T12:02:00;97151.78;;;14.78;100.00
20115;BME280;10218;42.874;25.320;2024-03-06T12:04:32;97147.94;;;14.32;100.00
20115;BME280;10218;42.874;25.320;2024-03-06T12:07:06;97145.56;;;15.99;100.00
20115;BME280;10218;42.874;25.320;2024-03-06T12:09:34;97155.41;;;17.04;100.00
20115;BME280;10218;42.874;25.320;2024-03-06T12:12:03;97144.47;;;15.07;100.00
20115;BME280;10218;42.874;25.320;2024-03-06T12:14:30;97153.06;;;14.82;100.00
20115;BME280;10218;42.874;25.320;2024-03-06T12:16:59;97153.16;;;15.09;100.00
20115;BME280;10218;42.874;25.320;2024-03-06T12:19:27;97153.47;;;14.86;100.00
20115;BME280;10218;42.874;25.320;2024-03-06T12:21:54;97158.81;;;14.45;100.00
20115;BME280;10218;42.874;25.320;2024-03-06T12:24:22;97150.19;;;14.90;100.00
20115;BME280;10218;42.874;25.320;2024-03-06T12:27:00;97152.09;;;14.06;100.00
20115;BME280;10218;42.874;25.320;2024-03-06T12:29:30;97152.63;;;14.23;100.00
20115;BME280;10218;42.874;25.320;2024-03-06T12:32:01;97154.88;;;15.16;100.00
20115;BME280;10218;42.874;25.320;2024-03-06T12:34:29;97163.13;;;14.39;100.00
20115;BME280;10218;42.874;25.320;2024-03-06T12:37:08;97143.81;;;14.57;100.00
20115;BME280;10218;42.874;25.320;2024-03-06T12:39:36;97143.44;;;14.67;100.00
20115;BME280;10218;42.874;25.320;2024-03-06T12:42:04;97150.03;;;14.64;100.00
20115;BME280;10218;42.874;25.320;2024-03-06T12:44:31;97153.06;;;14.82;100.00
20115;BME280;10218;42.874;25.320;2024-03-06T12:46:58;97151.06;;;14.35;100.00
20115;BME280;10218;42.874;25.320;2024-03-06T12:49:26;97139.34;;;13.66;100.00
20115;BME280;10218;42.874;25.320;2024-03-06T12:51:53;97147.03;;;14.46;100.00
20115;BME280;10218;42.874;25.320;2024-03-06T12:54:21;97145.31;;;13.89;100.00
20115;BME280;10218;42.874;25.320;2024-03-06T12:56:48;97140.22;;;13.31;100.00
20115;BME280;10218;42.874;25.320;2024-03-06T12:59:15;97140.72;;;13.83;100.00
20115;BME280;10218;42.874;25.320;2024-03-06T13:01:42;97136.25;;;13.48;100.00
20115;BME280;10218;42.874;25.320;2024-03-06T13:04:09;97144.25;;;13.62;100.00
20115;BME280;10218;42.874;25.320;2024-03-06T13:06:38;97138.66;;;14.06;100.00